Time,TemperatureF,DewpointF,PressureIn,WindDirection,WindDirectionDegrees,WindSpeedMPH,WindSpeedGustMPH,Humidity,HourlyPrecipIn,Conditions,Clouds,dailyrainin,SolarRadiationWatts/m^2,SoftwareType,DateUTC
2013-08-05 00:02:00,54.0,52.0,-100.00,South,182,17.0,24.0,93,0.00,,,-99.99,0.000000,,2013-08-05 06:02:00,
2013-08-05 00:12:00,53.0,52.0,-100.00,South,175,9.0,17.0,98,0.00,,,0.02,0.000000,,2013-08-05 06:12:00,
2013-08-05 00:32:00,53.0,52.0,-100.00,South,175,9.0,17.0,98,0.00,,,0.02,0.000000,,2013-08-05 06:32:00,
2013-08-05 00:43:00,53.0,52.0,-100.00,South,175,9.0,17.0,98,0.00,,,0.02,0.000000,,2013-08-05 06:43:00,
2013-08-05 00:52:00,53.0,52.0,-100.00,South,175,9.0,17.0,98,0.00,,,0.02,0.000000,,2013-08-05 06:52:00,
2013-08-05 01:02:00,53.0,52.0,-100.00,South,175,9.0,17.0,98,0.00,,,0.02,0.000000,,2013-08-05 07:02:00,
2013-08-05 01:12:00,52.0,51.0,-100.00,ESE,115,10.0,15.0,98,0.00,,,0.02,0.000000,,2013-08-05 07:12:00,
2013-08-05 01:32:00,52.0,51.0,-100.00,ESE,115,10.0,15.0,98,0.00,,,0.02,0.000000,,2013-08-05 07:32:00,
2013-08-05 01:43:00,52.0,51.0,-100.00,ESE,115,10.0,15.0,98,0.00,,,0.02,0.000000,,2013-08-05 07:43:00,
2013-08-05 01:53:00,52.0,51.0,-100.00,ESE,115,10.0,15.0,98,0.00,,,0.02,0.000000,,2013-08-05 07:53:00,
2013-08-05 02:02:00,52.0,51.0,-100.00,ESE,115,10.0,15.0,98,0.00,,,0.02,0.000000,,2013-08-05 08:02:00,
2013-08-05 02:12:00,52.0,49.0,-100.00,North,3,5.0,15.0,91,0.00,,,0.02,0.000000,,2013-08-05 08:12:00,
2013-08-05 02:34:00,52.0,49.0,-100.00,North,3,5.0,15.0,91,0.00,,,0.02,0.000000,,2013-08-05 08:34:00,
2013-08-05 02:51:00,52.0,49.0,-100.00,North,3,5.0,15.0,91,0.00,,,0.02,0.000000,,2013-08-05 08:51:00,
2013-08-05 03:06:00,52.0,49.0,-100.00,North,3,5.0,15.0,91,0.00,,,0.02,0.000000,,2013-08-05 09:06:00,
2013-08-05 03:42:00,52.0,49.0,-100.00,NNW,332,9.0,11.0,91,0.00,,,0.02,0.000000,,2013-08-05 09:42:00,
2013-08-05 03:53:00,52.0,49.0,-100.00,NNW,332,9.0,11.0,91,0.00,,,0.02,0.000000,,2013-08-05 09:53:00,
2013-08-05 04:07:00,52.0,49.0,-100.00,NNW,332,9.0,11.0,91,0.00,,,0.02,0.000000,,2013-08-05 10:07:00,
2013-08-05 04:12:00,53.0,51.0,-100.00,North,1,6.0,12.0,93,0.00,,,0.02,0.000000,,2013-08-05 10:12:00,
2013-08-05 04:50:00,53.0,51.0,-100.00,North,1,6.0,12.0,93,0.00,,,0.02,0.000000,,2013-08-05 10:50:00,
2013-08-05 05:07:00,53.0,51.0,-100.00,North,1,6.0,12.0,93,0.00,,,0.02,0.000000,,2013-08-05 11:07:00,
2013-08-05 05:12:00,55.0,51.0,-100.00,North,11,5.0,11.0,87,0.00,,,0.02,0.000000,,2013-08-05 11:12:00,
2013-08-05 05:38:00,55.0,51.0,-100.00,North,11,5.0,11.0,87,0.00,,,0.02,0.000000,,2013-08-05 11:38:00,
2013-08-05 05:53:00,55.0,51.0,-100.00,North,11,5.0,11.0,87,0.00,,,0.02,0.000000,,2013-08-05 11:53:00,
2013-08-05 05:58:00,55.0,51.0,-100.00,North,11,5.0,11.0,87,0.00,,,0.02,0.000000,,2013-08-05 11:58:00,
2013-08-05 06:06:00,55.0,51.0,-100.00,North,11,5.0,11.0,87,0.00,,,0.02,0.000000,,2013-08-05 12:06:00,
2013-08-05 06:12:00,55.0,49.0,-100.00,NNE,29,3.0,6.0,80,0.00,,,0.02,0.000000,,2013-08-05 12:12:00,
2013-08-05 06:34:00,55.0,49.0,-100.00,NNE,29,3.0,6.0,80,0.00,,,0.02,0.000000,,2013-08-05 12:34:00,
2013-08-05 06:52:00,55.0,49.0,-100.00,NNE,29,3.0,6.0,80,0.00,,,0.02,0.000000,,2013-08-05 12:52:00,
2013-08-05 06:59:00,55.0,49.0,-100.00,NNE,29,3.0,6.0,80,0.00,,,0.02,0.000000,,2013-08-05 12:59:00,
2013-08-05 07:12:00,56.0,46.0,-100.00,ESE,122,3.0,5.0,70,0.00,,,0.02,18.000000,,2013-08-05 13:12:00,
2013-08-05 07:39:00,56.0,46.0,-100.00,ESE,122,3.0,5.0,70,0.00,,,0.02,18.000000,,2013-08-05 13:39:00,
2013-08-05 07:46:00,56.0,46.0,-100.00,ESE,122,3.0,5.0,70,0.00,,,0.02,18.000000,,2013-08-05 13:46:00,
2013-08-05 07:54:00,56.0,46.0,-100.00,ESE,122,3.0,5.0,70,0.00,,,0.02,18.000000,,2013-08-05 13:54:00,
2013-08-05 08:06:00,56.0,46.0,-100.00,ESE,122,3.0,5.0,70,0.00,,,0.02,18.000000,,2013-08-05 14:06:00,
2013-08-05 08:12:00,62.0,52.0,-100.00,SE,127,2.0,5.0,71,0.00,,,-99.99,192.000000,,2013-08-05 14:12:00,
2013-08-05 08:48:00,62.0,52.0,-100.00,SE,127,2.0,5.0,71,0.00,,,-99.99,192.000000,,2013-08-05 14:48:00,
2013-08-05 08:54:00,62.0,52.0,-100.00,SE,127,2.0,5.0,71,0.00,,,-99.99,192.000000,,2013-08-05 14:54:00,
2013-08-05 09:07:00,62.0,52.0,-100.00,SE,127,2.0,5.0,71,0.00,,,-99.99,192.000000,,2013-08-05 15:07:00,
2013-08-05 09:40:00,62.0,52.0,-100.00,NW,318,3.0,5.0,69,0.00,,,0.02,378.000000,,2013-08-05 15:40:00,
2013-08-05 09:58:00,62.0,52.0,-100.00,NW,318,3.0,5.0,69,0.00,,,0.02,378.000000,,2013-08-05 15:58:00,
2013-08-05 10:07:00,62.0,52.0,-100.00,NW,318,3.0,5.0,69,0.00,,,0.02,378.000000,,2013-08-05 16:07:00,
2013-08-05 10:12:00,66.0,53.0,-100.00,NNE,14,2.0,5.0,63,0.00,,,0.02,513.000000,,2013-08-05 16:12:00,
2013-08-05 10:33:00,66.0,53.0,-100.00,NNE,14,2.0,5.0,63,0.00,,,0.02,513.000000,,2013-08-05 16:33:00,
2013-08-05 10:45:00,66.0,53.0,-100.00,NNE,14,2.0,5.0,63,0.00,,,0.02,513.000000,,2013-08-05 16:45:00,
2013-08-05 11:00:00,66.0,53.0,-100.00,NNE,14,2.0,5.0,63,0.00,,,0.02,513.000000,,2013-08-05 17:00:00,
2013-08-05 11:05:00,66.0,53.0,-100.00,NNE,14,2.0,5.0,63,0.00,,,0.02,513.000000,,2013-08-05 17:05:00,
2013-08-05 11:12:00,70.0,52.0,-100.00,SW,220,3.0,6.0,52,0.00,,,0.02,640.000000,,2013-08-05 17:12:00,
2013-08-05 11:39:00,70.0,52.0,-100.00,SW,220,3.0,6.0,52,0.00,,,0.02,640.000000,,2013-08-05 17:39:00,
2013-08-05 11:49:00,70.0,52.0,-100.00,SW,220,3.0,6.0,52,0.00,,,0.02,640.000000,,2013-08-05 17:49:00,
2013-08-05 11:59:00,70.0,52.0,-100.00,SW,220,3.0,6.0,52,0.00,,,0.02,640.000000,,2013-08-05 17:59:00,
2013-08-05 12:07:00,70.0,52.0,-100.00,SW,220,3.0,6.0,52,0.00,,,0.02,640.000000,,2013-08-05 18:07:00,
2013-08-05 12:12:00,74.0,55.0,-100.00,WSW,255,5.0,7.0,51,0.00,,,0.02,772.000000,,2013-08-05 18:12:00,
2013-08-05 12:39:00,74.0,55.0,-100.00,WSW,255,5.0,7.0,51,0.00,,,0.02,772.000000,,2013-08-05 18:39:00,
2013-08-05 12:45:00,74.0,55.0,-100.00,WSW,255,5.0,7.0,51,0.00,,,0.02,772.000000,,2013-08-05 18:45:00,
2013-08-05 12:54:00,74.0,55.0,-100.00,WSW,255,5.0,7.0,51,0.00,,,0.02,772.000000,,2013-08-05 18:54:00,
2013-08-05 13:05:00,74.0,55.0,-100.00,WSW,255,5.0,7.0,51,0.00,,,0.02,772.000000,,2013-08-05 19:05:00,
2013-08-05 13:12:00,74.0,52.0,-100.00,South,186,10.0,16.0,47,0.00,,,0.02,910.000000,,2013-08-05 19:12:00,
2013-08-05 13:39:00,74.0,52.0,-100.00,South,186,10.0,16.0,47,0.00,,,0.02,910.000000,,2013-08-05 19:39:00,
2013-08-05 13:53:00,74.0,52.0,-100.00,South,186,10.0,16.0,47,0.00,,,0.02,910.000000,,2013-08-05 19:53:00,
2013-08-05 14:12:00,76.0,52.0,-100.00,SW,225,7.0,16.0,43,0.00,,,0.02,899.000000,,2013-08-05 20:12:00,
2013-08-05 14:40:00,76.0,52.0,-100.00,SW,225,7.0,16.0,43,0.00,,,0.02,899.000000,,2013-08-05 20:40:00,
2013-08-05 14:48:00,76.0,52.0,-100.00,SW,225,7.0,16.0,43,0.00,,,0.02,899.000000,,2013-08-05 20:48:00,
2013-08-05 15:00:00,76.0,52.0,-100.00,SW,225,7.0,16.0,43,0.00,,,0.02,899.000000,,2013-08-05 21:00:00,
2013-08-05 15:05:00,76.0,52.0,-100.00,SW,225,7.0,16.0,43,0.00,,,0.02,899.000000,,2013-08-05 21:05:00,
2013-08-05 15:12:00,77.0,51.0,-100.00,SW,236,8.0,14.0,40,0.00,,,0.02,859.000000,,2013-08-05 21:12:00,
2013-08-05 15:48:00,77.0,51.0,-100.00,SW,236,8.0,14.0,40,0.00,,,0.02,859.000000,,2013-08-05 21:48:00,
2013-08-05 15:54:00,77.0,51.0,-100.00,SW,236,8.0,14.0,40,0.00,,,0.02,859.000000,,2013-08-05 21:54:00,
2013-08-05 16:05:00,77.0,51.0,-100.00,SW,236,8.0,14.0,40,0.00,,,0.02,859.000000,,2013-08-05 22:05:00,
2013-08-05 16:12:00,79.0,47.0,-100.00,WSW,246,7.0,15.0,33,0.00,,,0.02,766.000000,,2013-08-05 22:12:00,
2013-08-05 16:44:00,79.0,47.0,-100.00,WSW,246,7.0,15.0,33,0.00,,,0.02,766.000000,,2013-08-05 22:44:00,
2013-08-05 16:53:00,79.0,47.0,-100.00,WSW,246,7.0,15.0,33,0.00,,,0.02,766.000000,,2013-08-05 22:53:00,
2013-08-05 17:12:00,74.0,43.0,-100.00,WSW,241,6.0,14.0,33,0.00,,,0.02,518.000000,,2013-08-05 23:12:00,
2013-08-05 17:33:00,74.0,43.0,-100.00,WSW,241,6.0,14.0,33,0.00,,,0.02,518.000000,,2013-08-05 23:33:00,
2013-08-05 17:46:00,74.0,43.0,-100.00,WSW,241,6.0,14.0,33,0.00,,,0.02,518.000000,,2013-08-05 23:46:00,
2013-08-05 18:02:00,74.0,43.0,-100.00,WSW,241,6.0,14.0,33,0.00,,,0.02,518.000000,,2013-08-06 00:02:00,
2013-08-05 18:12:00,73.0,45.0,-100.00,West,265,7.0,14.0,37,0.00,,,0.02,106.000000,,2013-08-06 00:12:00,
2013-08-05 18:37:00,73.0,45.0,-100.00,West,265,7.0,14.0,37,0.00,,,0.02,106.000000,,2013-08-06 00:37:00,
2013-08-05 18:46:00,73.0,45.0,-100.00,West,265,7.0,14.0,37,0.00,,,0.02,106.000000,,2013-08-06 00:46:00,
2013-08-05 18:57:00,73.0,45.0,-100.00,West,265,7.0,14.0,37,0.00,,,0.02,106.000000,,2013-08-06 00:57:00,
2013-08-05 19:07:00,73.0,45.0,-100.00,West,265,7.0,14.0,37,0.00,,,0.02,106.000000,,2013-08-06 01:07:00,
2013-08-05 19:42:00,69.0,44.0,-100.00,SW,220,5.0,10.0,40,0.00,,,0.00,102.000000,,2013-08-06 01:42:00,
2013-08-05 19:52:00,69.0,44.0,-100.00,SW,220,5.0,10.0,40,0.00,,,0.00,102.000000,,2013-08-06 01:52:00,
2013-08-05 20:01:00,69.0,44.0,-100.00,SW,220,5.0,10.0,40,0.00,,,0.00,102.000000,,2013-08-06 02:01:00,
2013-08-05 20:07:00,69.0,44.0,-100.00,SW,220,5.0,10.0,40,0.00,,,0.00,102.000000,,2013-08-06 02:07:00,
2013-08-05 20:12:00,64.0,41.0,-100.00,NW,308,9.0,15.0,43,0.00,,,0.00,19.000000,,2013-08-06 02:12:00,
2013-08-05 20:33:00,64.0,41.0,-100.00,NW,308,9.0,15.0,43,0.00,,,0.00,19.000000,,2013-08-06 02:33:00,
2013-08-05 20:49:00,64.0,41.0,-100.00,NW,308,9.0,15.0,43,0.00,,,0.00,19.000000,,2013-08-06 02:49:00,
2013-08-05 21:01:00,64.0,41.0,-100.00,NW,308,9.0,15.0,43,0.00,,,0.00,19.000000,,2013-08-06 03:01:00,
2013-08-05 21:35:00,63.0,42.0,-100.00,NW,304,7.0,16.0,47,0.00,,,-99.99,0.000000,,2013-08-06 03:35:00,
2013-08-05 21:45:00,63.0,42.0,-100.00,NW,304,7.0,16.0,47,0.00,,,-99.99,0.000000,,2013-08-06 03:45:00,
2013-08-05 21:52:00,63.0,42.0,-100.00,NW,304,7.0,16.0,47,0.00,,,-99.99,0.000000,,2013-08-06 03:52:00,
2013-08-05 22:01:00,63.0,42.0,-100.00,NW,304,7.0,16.0,47,0.00,,,-99.99,0.000000,,2013-08-06 04:01:00,
2013-08-05 22:11:00,63.0,42.0,-100.00,NW,304,7.0,16.0,47,0.00,,,-99.99,0.000000,,2013-08-06 04:11:00,
2013-08-05 22:33:00,63.0,41.0,-100.00,NW,315,6.0,15.0,45,0.00,,,0.00,0.000000,,2013-08-06 04:33:00,
2013-08-05 22:44:00,63.0,41.0,-100.00,NW,315,6.0,15.0,45,0.00,,,0.00,0.000000,,2013-08-06 04:44:00,
2013-08-05 22:53:00,63.0,41.0,-100.00,NW,315,6.0,15.0,45,0.00,,,0.00,0.000000,,2013-08-06 04:53:00,
2013-08-05 23:02:00,63.0,41.0,-100.00,NW,315,6.0,15.0,45,0.00,,,0.00,0.000000,,2013-08-06 05:02:00,
2013-08-05 23:11:00,63.0,41.0,-100.00,NW,315,6.0,15.0,45,0.00,,,0.00,0.000000,,2013-08-06 05:11:00,
2013-08-05 23:32:00,61.0,44.0,-100.00,East,82,2.0,9.0,54,0.00,,,0.00,0.000000,,2013-08-06 05:32:00,
2013-08-05 23:43:00,61.0,44.0,-100.00,East,82,2.0,9.0,54,0.00,,,0.00,0.000000,,2013-08-06 05:43:00,
2013-08-05 23:53:00,61.0,44.0,-100.00,East,82,2.0,9.0,54,0.00,,,0.00,0.000000,,2013-08-06 05:53:00,